NCAR-RAP Real-Time Weather Data

Output produced by METARs form (01 October 2022  05:58 UTC)
found at http://weather.rap.ucar.edu/surface/
 
WMKK 010530Z VRB03KT 9999 SCT018 29/24 Q1009 NOSIG
WMKK 010500Z VRB03KT 9999 FEW018 29/25 Q1009 NOSIG
WMKK 010430Z 34003KT 280V050 9999 FEW018 27/24 Q1010 NOSIG
WMKK 010400Z VRB03KT 9000 FEW018 26/23 Q1010 RERA NOSIG
WMKK 010330Z VRB02KT 7000 -RA FEW008 SCT030 24/22 Q1010 RERA NOSIG
WMKK 010305Z 05008KT 010V090 5000 RA FEW004 FEW017CB SCT028 23/22 Q1011 TEMPO TL0330 5000 RA
WMKK 010300Z 04008KT 360V090 6000 -RA FEW006 FEW017CB SCT030 24/22 Q1012 TEMPO TL0330 6000 -RA
WMKK 010230Z 33005KT 250V050 8000 -RA FEW008 FEW017CB SCT030 25/24 Q1012 NOSIG
WMKK 010200Z 31006KT 250V350 8000 -RA FEW008 FEW017CB SCT030 25/23 Q1012 NOSIG
WMKK 010130Z 29004KT 240V340 9999 VCSH FEW017CB SCT030 27/24 Q1011 TEMPO 7000 -RA
WMKK 010100Z VRB02KT 9999 FEW017CB 27/24 Q1011 NOSIG
WMKK 010030Z VRB02KT 9999 FEW017CB SCT030 27/24 Q1011 NOSIG
WMKK 010000Z VRB01KT 9999 FEW010 FEW017CB SCT030 26/24 Q1010 NOSIG
WMKK 302330Z VRB01KT 9999 FEW010 FEW017CB SCT030 26/24 Q1010 NOSIG
WMKK 302300Z 00000KT 9000 FEW008 FEW017CB SCT030 26/24 Q1010 NOSIG
WMKK 302230Z 00000KT 9000 FEW008 FEW017CB SCT030 25/24 Q1009 NOSIG
WMKK 302200Z 00000KT 9000 FEW008 FEW017CB SCT030 25/24 Q1009 NOSIG
WMKK 302130Z 00000KT 9000 FEW008 FEW017CB SCT030 25/24 Q1009 NOSIG
WMKK 302100Z 23003KT 160V290 9000 FEW008 FEW017CB SCT030 25/24 Q1009 NOSIG
WMKK 302030Z VRB02KT 9000 FEW008 FEW017CB SCT030 26/24 Q1009 NOSIG
WMKK 302000Z VRB01KT 9000 FEW008 FEW017CB SCT030 26/24 Q1009 NOSIG
WMKK 301930Z VRB03KT 9999 FEW010 FEW017CB SCT030 26/24 Q1009 NOSIG
WMKK 301900Z VRB02KT 9999 FEW010 FEW017CB SCT030 26/24 Q1008 NOSIG
WMKK 301830Z VRB01KT 9999 FEW030 26/25 Q1009 NOSIG
WMKK 301800Z 03003KT 360V080 9999 FEW030 27/25 Q1009 RETS NOSIG